Time;durP1;ratioP1;P1;durP2;ratioP2;P2;SDS_P1;SDS_P2;PMS_P1;PMS_P2;Temp;Humidity;BMP_temperature;BMP_pressure;BME280_temperature;BME280_humidity;BME280_pressure;Samples;Min_cycle;Max_cycle;Signal;HPM_P1;HPM_P2
2021/12/19 00:04:40;;;;;;;9.48;3.10;;;;;;;6.11;100.00;103760.13;4998355;28;20127;-76
2021/12/19 00:09:46;;;;;;;6.13;2.78;;;;;;;6.09;100.00;103754.00;4999055;28;20042;-75
2021/12/19 00:12:11;;;;;;;5.78;2.45;;;;;;;6.10;100.00;103758.38;5002677;28;20053;-76
2021/12/19 00:14:37;;;;;;;7.88;2.85;;;;;;;6.10;100.00;103747.91;5000483;28;20058;-76
2021/12/19 00:17:03;;;;;;;5.35;2.30;;;;;;;6.06;100.00;103753.91;4998620;28;20136;-77
2021/12/19 00:19:28;;;;;;;6.40;2.70;;;;;;;6.10;100.00;103747.03;5002570;28;20042;-76
2021/12/19 00:21:54;;;;;;;5.20;2.53;;;;;;;6.12;100.00;103748.81;4999807;28;20523;-77
2021/12/19 00:24:19;;;;;;;6.97;2.50;;;;;;;6.16;100.00;103748.03;5013894;28;20096;-77
2021/12/19 00:26:45;;;;;;;5.00;2.60;;;;;;;6.17;100.00;103735.88;5007978;28;20490;-76
2021/12/19 00:29:11;;;;;;;6.47;2.42;;;;;;;6.20;100.00;103733.28;5003059;28;20042;-76
2021/12/19 00:31:37;;;;;;;7.43;2.30;;;;;;;6.23;100.00;103730.75;5003821;28;20041;-75
2021/12/19 00:34:03;;;;;;;5.75;2.22;;;;;;;6.25;100.00;103722.94;5000999;28;20423;-77
2021/12/19 00:36:28;;;;;;;5.57;2.42;;;;;;;6.16;100.00;103721.91;4997705;28;20027;-76
2021/12/19 00:38:54;;;;;;;5.60;2.42;;;;;;;6.21;100.00;103722.00;4992794;28;20041;-76
2021/12/19 00:41:19;;;;;;;6.00;2.47;;;;;;;6.24;100.00;103727.28;5001398;28;20053;-77
2021/12/19 00:43:53;;;;;;;4.80;2.53;;;;;;;6.16;100.00;103716.69;5000233;28;20120;-76
2021/12/19 00:46:19;;;;;;;5.70;2.35;;;;;;;6.22;100.00;103715.06;4996174;28;20502;-75
2021/12/19 00:49:00;;;;;;;7.50;2.60;;;;;;;6.20;100.00;103717.63;5005342;28;20459;-75
2021/12/19 00:51:25;;;;;;;6.65;2.83;;;;;;;6.28;100.00;103707.31;4989186;28;20488;-77
2021/12/19 00:53:53;;;;;;;7.72;3.00;;;;;;;6.40;100.00;103711.88;4998491;28;20116;-77
2021/12/19 00:56:19;;;;;;;8.13;2.97;;;;;;;6.27;100.00;103705.56;5035811;28;20045;-76
2021/12/19 00:58:45;;;;;;;9.23;3.08;;;;;;;6.23;100.00;103707.25;5024125;28;20044;-76
2021/12/19 01:01:12;;;;;;;10.43;3.13;;;;;;;6.22;100.00;103705.50;5004900;28;20065;-77
2021/12/19 01:03:43;;;;;;;7.72;3.67;;;;;;;6.24;100.00;103705.50;5008401;28;20057;-76
2021/12/19 01:06:08;;;;;;;8.45;3.45;;;;;;;6.26;100.00;103704.69;5008501;28;20053;-77
2021/12/19 01:08:33;;;;;;;6.22;2.80;;;;;;;6.26;100.00;103706.41;4997062;28;20030;-76
2021/12/19 01:10:59;;;;;;;8.23;3.17;;;;;;;6.31;100.00;103707.38;5009607;28;20065;-78
2021/12/19 01:13:24;;;;;;;6.22;2.67;;;;;;;6.30;100.00;103701.28;5004575;28;20102;-77
2021/12/19 01:15:51;;;;;;;6.53;3.17;;;;;;;6.34;100.00;103697.88;5009136;28;20092;-76
2021/12/19 01:18:17;;;;;;;6.78;2.97;;;;;;;6.35;100.00;103688.28;4994934;28;20488;-76
2021/12/19 01:20:42;;;;;;;7.40;2.65;;;;;;;6.37;100.00;103696.19;4996439;28;20061;-76
2021/12/19 01:23:10;;;;;;;5.97;2.60;;;;;;;6.39;100.00;103697.09;4998870;28;20378;-76
2021/12/19 01:25:36;;;;;;;4.63;2.22;;;;;;;6.33;100.00;103693.50;5018922;28;20041;-77
2021/12/19 01:28:02;;;;;;;6.20;2.28;;;;;;;6.43;100.00;103691.94;5006762;28;20038;-75
2021/12/19 01:30:28;;;;;;;6.30;2.40;;;;;;;6.47;100.00;103685.03;5007587;28;20495;-74
2021/12/19 01:32:54;;;;;;;5.40;2.30;;;;;;;6.37;100.00;103681.38;4996923;28;20038;-76
2021/12/19 01:35:21;;;;;;;6.93;2.80;;;;;;;6.42;100.00;103684.06;5012582;28;20043;-77
2021/12/19 01:37:47;;;;;;;6.95;2.85;;;;;;;6.38;100.00;103692.72;5005744;28;20557;-76
2021/12/19 01:40:17;;;;;;;7.13;2.75;;;;;;;6.38;100.00;103692.72;4999405;28;20041;-77
2021/12/19 01:42:44;;;;;;;8.60;3.10;;;;;;;6.37;100.00;103690.94;5002234;28;20030;-76
2021/12/19 01:45:20;;;;;;;9.88;3.17;;;;;;;6.37;100.00;103685.72;5010827;28;20046;-77
2021/12/19 01:47:47;;;;;;;8.35;2.70;;;;;;;6.46;100.00;103691.09;5002947;28;21034;-75
2021/12/19 01:50:12;;;;;;;7.20;2.70;;;;;;;6.42;100.00;103684.06;5015214;28;20158;-75
2021/12/19 01:52:38;;;;;;;6.80;2.63;;;;;;;6.36;100.00;103679.59;5004642;28;20132;-76
2021/12/19 01:55:04;;;;;;;7.32;2.70;;;;;;;6.35;100.00;103683.06;5013904;28;20030;-77
2021/12/19 01:57:30;;;;;;;7.32;2.83;;;;;;;6.32;100.00;103683.03;5010600;28;20395;-77
2021/12/19 01:59:55;;;;;;;7.70;2.80;;;;;;;6.44;100.00;103688.47;4996601;28;20065;-76
2021/12/19 02:02:21;;;;;;;6.93;2.85;;;;;;;6.43;100.00;103678.88;5002265;28;20030;-76
2021/12/19 02:04:48;;;;;;;9.93;3.03;;;;;;;6.40;100.00;103677.91;5001773;28;20066;-76
2021/12/19 02:07:13;;;;;;;8.13;3.05;;;;;;;6.48;100.00;103671.13;5010457;28;20053;-75
2021/12/19 02:09:41;;;;;;;5.95;2.88;;;;;;;6.50;100.00;103672.88;5009887;28;20038;-75
2021/12/19 02:12:07;;;;;;;7.40;3.03;;;;;;;6.41;100.00;103675.34;5018451;28;20045;-77
2021/12/19 02:14:33;;;;;;;7.00;2.85;;;;;;;6.39;100.00;103665.75;5008316;28;20150;-77
2021/12/19 02:16:58;;;;;;;6.72;2.70;;;;;;;6.39;100.00;103663.13;5003386;28;20125;-77
2021/12/19 02:19:24;;;;;;;7.78;3.15;;;;;;;6.52;100.00;103667.69;4994144;28;20083;-77
2021/12/19 02:21:51;;;;;;;7.55;3.05;;;;;;;6.47;100.00;103656.31;5015411;28;20410;-76
2021/12/19 02:24:16;;;;;;;6.95;3.10;;;;;;;6.45;100.00;103652.78;4994820;28;20053;-77
2021/12/19 02:26:43;;;;;;;6.82;2.78;;;;;;;6.43;100.00;103647.53;4997920;28;20042;-76
2021/12/19 02:29:11;;;;;;;5.95;2.88;;;;;;;6.40;100.00;103639.66;4995520;28;20046;-76
2021/12/19 02:31:37;;;;;;;7.18;2.60;;;;;;;6.45;100.00;103632.75;5006482;28;20124;-77
2021/12/19 02:34:08;;;;;;;8.10;3.33;;;;;;;6.46;100.00;103629.28;4997270;28;20812;-77
2021/12/19 02:50:00;;;;;;;6.30;2.77;;;;;;;6.49;100.00;103618.91;5002056;28;20046;-76
2021/12/19 02:52:25;;;;;;;5.40;2.28;;;;;;;6.54;100.00;103611.13;4992304;28;20045;-76
2021/12/19 02:54:50;;;;;;;5.68;2.60;;;;;;;6.55;100.00;103623.34;5011839;28;20030;-77
2021/12/19 02:57:16;;;;;;;5.28;2.47;;;;;;;6.59;100.00;103619.91;5005848;28;20041;-76
2021/12/19 02:59:41;;;;;;;7.80;2.50;;;;;;;6.61;100.00;103619.94;5007297;28;20485;-76
2021/12/19 03:02:07;;;;;;;6.13;2.35;;;;;;;6.52;100.00;103620.66;5002013;28;20029;-76
2021/12/19 03:04:32;;;;;;;4.63;1.95;;;;;;;6.48;100.00;103605.81;5002459;28;20136;-76
2021/12/19 03:06:58;;;;;;;4.65;1.85;;;;;;;6.50;100.00;103602.38;4999389;28;20054;-76
2021/12/19 03:20:07;;;;;;;4.20;1.45;;;;;;;6.33;100.00;103596.88;5007434;28;20061;-76
2021/12/19 03:22:33;;;;;;;3.38;1.48;;;;;;;6.32;100.00;103596.88;5009842;28;20642;-78
2021/12/19 03:24:58;;;;;;;4.60;1.88;;;;;;;6.42;100.00;103596.16;5023363;28;20053;-76
2021/12/19 03:27:24;;;;;;;6.07;1.70;;;;;;;6.34;100.00;103588.19;5009954;28;20492;-76
2021/12/19 03:29:49;;;;;;;4.50;1.40;;;;;;;6.30;100.00;103583.78;4999898;28;20113;-75
2021/12/19 03:32:14;;;;;;;4.57;1.70;;;;;;;6.29;100.00;103587.25;5008788;28;20203;-76
2021/12/19 03:34:40;;;;;;;3.28;1.35;;;;;;;6.31;100.00;103574.22;5029395;28;20049;-76
2021/12/19 03:37:05;;;;;;;2.80;1.30;;;;;;;6.31;100.00;103569.00;5013951;28;20261;-77
2021/12/19 03:42:12;;;;;;;6.38;1.60;;;;;;;6.22;100.00;103561.91;5007239;28;20054;-77
2021/12/19 03:44:39;;;;;;;6.30;1.67;;;;;;;6.25;100.00;103564.56;5012499;28;20041;-77
2021/12/19 03:47:04;;;;;;;4.55;1.80;;;;;;;6.23;100.00;103568.88;5023404;28;20077;-76
2021/12/19 03:49:30;;;;;;;4.93;1.90;;;;;;;6.29;100.00;103568.97;5003473;28;20489;-76
2021/12/19 03:51:55;;;;;;;3.75;1.73;;;;;;;6.24;100.00;103568.03;5010801;28;20049;-77
2021/12/19 03:54:21;;;;;;;5.50;1.90;;;;;;;6.23;100.00;103557.56;5015144;28;20042;-78
2021/12/19 03:56:46;;;;;;;4.68;1.45;;;;;;;6.36;100.00;103564.72;4999299;28;20459;-77
2021/12/19 03:59:11;;;;;;;3.45;1.40;;;;;;;6.27;100.00;103548.91;5020413;28;20038;-76
2021/12/19 04:01:37;;;;;;;4.63;1.40;;;;;;;6.23;100.00;103552.34;5014659;28;20038;-76
2021/12/19 04:04:02;;;;;;;3.03;1.50;;;;;;;6.19;100.00;103547.06;5005223;28;20513;-75
2021/12/19 04:06:28;;;;;;;5.30;1.83;;;;;;;6.16;100.00;103533.09;4994600;28;20075;-77
2021/12/19 04:08:56;;;;;;;6.20;2.22;;;;;;;6.28;100.00;103529.78;4997320;28;20070;-77
2021/12/19 04:11:24;;;;;;;6.55;2.22;;;;;;;6.21;100.00;103523.59;4989499;28;20062;-78
2021/12/19 04:13:49;;;;;;;7.05;2.60;;;;;;;6.21;100.00;103523.59;5000551;28;20046;-76
2021/12/19 04:16:15;;;;;;;8.82;2.80;;;;;;;6.20;100.00;103521.84;5005003;28;20041;-76
2021/12/19 04:18:40;;;;;;;8.93;2.63;;;;;;;6.23;100.00;103521.03;5008101;28;20050;-77
2021/12/19 04:21:06;;;;;;;9.82;3.20;;;;;;;6.25;100.00;103514.97;5016748;28;20134;-77
2021/12/19 04:23:31;;;;;;;6.60;2.60;;;;;;;6.21;100.00;103514.91;5019513;28;20152;-76
2021/12/19 04:25:57;;;;;;;7.55;2.20;;;;;;;6.17;100.00;103513.97;5014664;28;20038;-77
2021/12/19 04:28:22;;;;;;;5.28;1.67;;;;;;;6.16;100.00;103512.22;5005082;28;20058;-76
2021/12/19 04:30:48;;;;;;;4.72;1.60;;;;;;;6.22;100.00;103512.28;5005442;28;20520;-77
2021/12/19 04:33:13;;;;;;;3.38;1.60;;;;;;;6.21;100.00;103513.16;5004555;28;20506;-76
2021/12/19 04:35:42;;;;;;;4.75;1.88;;;;;;;6.17;100.00;103509.63;5006676;28;20069;-77
2021/12/19 05:15:10;;;;;;;2.25;0.90;;;;;;;6.08;100.00;103505.97;4999329;28;20058;-76
2021/12/19 05:17:36;;;;;;;5.78;1.10;;;;;;;5.98;100.00;103497.97;5028787;28;20108;-77
2021/12/19 05:22:48;;;;;;;3.47;1.00;;;;;;;5.87;100.00;103491.72;5003359;28;20116;-76
2021/12/19 05:25:17;;;;;;;2.38;0.90;;;;;;;5.91;100.00;103497.84;5017260;28;20041;-76
2021/12/19 05:27:44;;;;;;;2.85;0.93;;;;;;;5.90;100.00;103502.22;4990577;28;20085;-76
2021/12/19 05:30:12;;;;;;;2.88;1.02;;;;;;;5.88;100.00;103502.19;4998733;28;20421;-75
2021/12/19 05:32:39;;;;;;;7.15;1.15;;;;;;;5.86;100.00;103506.50;4996400;28;20045;-75
2021/12/19 05:35:05;;;;;;;7.80;1.20;;;;;;;5.88;100.00;103498.69;5006760;28;20068;-76
2021/12/19 05:45:32;;;;;;;2.22;0.73;;;;;;;5.92;100.00;103505.72;5011905;28;20114;-75
2021/12/19 05:47:58;;;;;;;3.30;0.88;;;;;;;5.85;100.00;103486.50;5005384;28;20046;-75
2021/12/19 05:50:23;;;;;;;2.03;0.77;;;;;;;5.86;100.00;103495.19;5005319;28;20377;-75
2021/12/19 05:52:50;;;;;;;3.28;0.90;;;;;;;5.88;100.00;103483.94;4998700;28;20081;-76
2021/12/19 05:55:16;;;;;;;2.33;0.95;;;;;;;5.93;100.00;103496.16;5001840;28;20633;-77
2021/12/19 05:57:42;;;;;;;2.53;0.90;;;;;;;5.91;100.00;103493.53;5003660;28;20034;-76
2021/12/19 06:00:13;;;;;;;3.53;1.10;;;;;;;5.94;100.00;103492.69;5017974;28;20050;-76
2021/12/19 06:02:40;;;;;;;4.22;1.25;;;;;;;5.91;100.00;103493.53;5004850;28;20029;-75
2021/12/19 06:05:07;;;;;;;5.43;1.30;;;;;;;5.95;100.00;103486.63;4992267;28;20575;-75
2021/12/19 06:07:33;;;;;;;4.75;1.27;;;;;;;6.05;100.00;103485.06;4989876;28;20514;-76
2021/12/19 06:09:59;;;;;;;2.80;1.40;;;;;;;6.03;100.00;103483.31;4999261;28;20045;-76
2021/12/19 06:12:25;;;;;;;3.40;1.60;;;;;;;6.04;100.00;103473.75;5015896;28;20495;-76
2021/12/19 06:14:50;;;;;;;3.72;1.40;;;;;;;6.08;100.00;103474.66;5006607;28;20056;-75
2021/12/19 06:17:15;;;;;;;3.60;1.20;;;;;;;6.02;100.00;103478.94;4994197;28;20495;-74
2021/12/19 06:19:41;;;;;;;4.25;1.20;;;;;;;5.98;100.00;103484.94;5002065;28;20124;-76
2021/12/19 06:22:06;;;;;;;2.63;1.15;;;;;;;5.96;100.00;103481.41;5000136;28;20045;-75
2021/12/19 06:24:33;;;;;;;4.45;0.90;;;;;;;6.02;100.00;103475.44;5003312;28;20121;-76
2021/12/19 06:27:00;;;;;;;2.60;1.10;;;;;;;6.03;100.00;103479.81;4998204;28;20038;-76
2021/12/19 06:29:27;;;;;;;4.40;1.20;;;;;;;6.00;100.00;103479.78;4990054;28;20031;-76
2021/12/19 06:31:52;;;;;;;1.75;0.80;;;;;;;6.00;100.00;103469.34;4995408;28;20043;-75
2021/12/19 06:34:18;;;;;;;1.83;0.80;;;;;;;5.93;100.00;103470.97;5000357;28;20088;-75
2021/12/19 06:36:43;;;;;;;1.75;0.70;;;;;;;5.95;100.00;103456.22;5001397;28;20064;-78
2021/12/19 06:39:09;;;;;;;2.97;0.90;;;;;;;5.91;100.00;103462.22;4994608;28;20514;-78
2021/12/19 06:41:36;;;;;;;1.75;0.68;;;;;;;5.93;100.00;103468.34;5005376;28;20042;-75
2021/12/19 06:44:02;;;;;;;4.63;0.80;;;;;;;5.92;100.00;103470.91;5007340;28;20103;-76
2021/12/19 06:46:27;;;;;;;3.20;1.20;;;;;;;5.96;100.00;103467.50;5009602;28;20045;-77
2021/12/19 06:48:53;;;;;;;3.70;1.10;;;;;;;5.98;100.00;103464.06;4992409;28;20047;-76
2021/12/19 06:51:18;;;;;;;4.18;0.90;;;;;;;5.91;100.00;103462.22;5014646;28;20057;-76
2021/12/19 06:53:44;;;;;;;3.13;0.93;;;;;;;5.97;100.00;103466.66;5011741;28;20037;-77
2021/12/19 06:56:09;;;;;;;2.92;1.25;;;;;;;6.01;100.00;103469.38;5022860;28;20045;-76
2021/12/19 06:58:34;;;;;;;4.47;1.30;;;;;;;6.07;100.00;103465.06;4998705;28;20510;-76
2021/12/19 07:01:00;;;;;;;4.07;1.35;;;;;;;6.02;100.00;103460.69;5009223;28;20104;-75
2021/12/19 07:03:25;;;;;;;5.63;1.60;;;;;;;6.01;100.00;103456.31;5003869;28;20482;-75
2021/12/19 07:05:51;;;;;;;4.82;1.30;;;;;;;6.00;100.00;103461.53;5006552;28;20319;-76
2021/12/19 07:08:17;;;;;;;4.28;1.27;;;;;;;5.99;100.00;103449.28;5005698;28;20514;-75
2021/12/19 07:10:43;;;;;;;5.60;1.65;;;;;;;5.99;100.00;103449.28;5004856;28;20034;-76
2021/12/19 07:13:08;;;;;;;5.85;1.70;;;;;;;5.98;100.00;103448.41;4991050;28;20039;-76
2021/12/19 07:15:34;;;;;;;8.23;1.80;;;;;;;6.01;100.00;103451.09;5008703;28;20112;-76
2021/12/19 07:18:02;;;;;;;4.88;1.63;;;;;;;5.98;100.00;103443.19;5025416;28;20514;-76
2021/12/19 07:20:29;;;;;;;4.45;1.70;;;;;;;6.09;100.00;103445.09;5026180;28;20068;-77
2021/12/19 07:22:55;;;;;;;5.18;1.70;;;;;;;6.05;100.00;103443.31;5009532;28;20034;-77
2021/12/19 07:25:20;;;;;;;6.60;1.48;;;;;;;6.05;100.00;103446.78;5010697;28;20626;-77
2021/12/19 07:27:46;;;;;;;5.10;1.67;;;;;;;6.01;100.00;103442.38;5002851;28;20061;-76
2021/12/19 07:30:11;;;;;;;4.93;1.70;;;;;;;6.07;100.00;103441.59;5009822;28;20045;-75
2021/12/19 07:32:38;;;;;;;4.07;1.70;;;;;;;6.10;100.00;103445.16;5005370;28;20093;-75
2021/12/19 07:35:07;;;;;;;6.28;1.88;;;;;;;6.05;100.00;103444.19;5011348;28;20103;-77
2021/12/19 07:37:32;;;;;;;5.15;1.90;;;;;;;5.99;100.00;103442.38;5006402;28;20042;-75
2021/12/19 07:40:10;;;;;;;6.47;1.90;;;;;;;6.03;100.00;103446.78;5012424;28;20493;-77
2021/12/19 07:42:35;;;;;;;7.82;1.85;;;;;;;5.95;100.00;103444.88;4998154;28;20041;-76
2021/12/19 07:45:00;;;;;;;3.10;1.50;;;;;;;6.03;100.00;103446.78;5003989;28;20703;-77
2021/12/19 07:47:26;;;;;;;3.28;1.58;;;;;;;6.00;100.00;103438.91;5015564;28;20401;-76
2021/12/19 07:49:51;;;;;;;3.10;1.15;;;;;;;5.96;100.00;103434.44;5008247;28;20064;-76
2021/12/19 07:52:17;;;;;;;3.85;1.35;;;;;;;5.87;100.00;103437.81;5002891;28;20549;-75
2021/12/19 07:54:42;;;;;;;3.53;1.17;;;;;;;5.84;100.00;103445.59;5014788;28;20048;-77
2021/12/19 07:57:07;;;;;;;7.88;1.83;;;;;;;5.86;100.00;103443.00;5032740;28;20068;-76
2021/12/19 07:59:33;;;;;;;4.65;1.00;;;;;;;5.87;100.00;103429.09;5015332;28;20049;-75
2021/12/19 08:01:58;;;;;;;4.30;1.20;;;;;;;5.87;100.00;103416.06;5002574;28;20138;-76
2021/12/19 08:04:24;;;;;;;6.68;1.30;;;;;;;5.90;100.00;103423.06;4994360;28;20054;-76
2021/12/19 08:06:49;;;;;;;2.35;1.05;;;;;;;5.94;100.00;103424.84;5019942;28;20049;-77
2021/12/19 08:09:24;;;;;;;2.45;0.80;;;;;;;5.98;100.00;103419.69;4995781;28;20412;-76
2021/12/19 08:11:51;;;;;;;5.75;1.30;;;;;;;6.00;100.00;103425.00;5006123;28;20089;-77
2021/12/19 08:14:17;;;;;;;3.92;1.10;;;;;;;6.05;100.00;103419.84;4999361;28;20037;-77
2021/12/19 08:16:45;;;;;;;2.47;1.00;;;;;;;6.11;100.00;103412.06;5002616;28;20042;-77
2021/12/19 08:19:10;;;;;;;3.85;1.10;;;;;;;6.02;100.00;103400.66;5002447;28;20159;-76
2021/12/19 08:21:37;;;;;;;6.07;1.20;;;;;;;6.13;100.00;103410.38;5010397;28;20557;-77
2021/12/19 08:24:09;;;;;;;3.00;1.30;;;;;;;6.13;100.00;103421.66;5033120;28;20132;-74
2021/12/19 08:26:34;;;;;;;6.10;1.75;;;;;;;6.16;100.00;103413.91;5016634;28;20030;-76
2021/12/19 08:28:59;;;;;;;5.10;1.52;;;;;;;6.23;100.00;103414.00;5017915;28;20044;-76
2021/12/19 08:31:25;;;;;;;4.00;1.17;;;;;;;6.26;100.00;103408.78;5014532;28;20057;-72
2021/12/19 08:33:50;;;;;;;5.38;1.20;;;;;;;6.26;100.00;103395.72;4995989;28;20045;-75
2021/12/19 08:36:16;;;;;;;3.03;1.30;;;;;;;6.25;100.00;103394.88;5007972;28;20121;-75
2021/12/19 08:38:41;;;;;;;4.60;1.60;;;;;;;6.27;100.00;103398.38;5003467;28;20026;-77
2021/12/19 08:41:07;;;;;;;4.15;1.38;;;;;;;6.26;100.00;103400.97;5002759;28;20060;-76
2021/12/19 08:43:32;;;;;;;7.22;1.73;;;;;;;6.30;100.00;103401.00;5024888;28;20471;-78
2021/12/19 08:45:58;;;;;;;4.30;1.55;;;;;;;6.31;100.00;103396.69;5006890;28;20046;-79
2021/12/19 08:48:24;;;;;;;4.90;1.88;;;;;;;6.41;100.00;103402.88;5027781;28;20049;-77
2021/12/19 08:50:51;;;;;;;4.35;1.90;;;;;;;6.37;100.00;103399.34;5009756;28;20145;-77
2021/12/19 08:53:17;;;;;;;8.93;2.08;;;;;;;6.30;100.00;103387.97;5003454;28;20739;-78
2021/12/19 08:55:43;;;;;;;6.40;2.30;;;;;;;6.28;100.00;103388.81;4999138;28;20129;-77
2021/12/19 08:58:08;;;;;;;8.00;2.20;;;;;;;6.35;100.00;103390.63;4995533;28;20050;-77
2021/12/19 09:00:34;;;;;;;9.25;2.20;;;;;;;6.38;100.00;103387.19;5000915;28;20041;-77
2021/12/19 09:03:00;;;;;;;10.15;2.30;;;;;;;6.42;100.00;103386.34;5005287;28;20076;-75
2021/12/19 09:05:28;;;;;;;9.55;2.45;;;;;;;6.34;100.00;103384.53;5006829;28;20034;-76
2021/12/19 09:07:53;;;;;;;6.85;2.25;;;;;;;6.37;99.24;103380.22;5001893;28;20495;-76
2021/12/19 09:10:20;;;;;;;12.55;2.70;;;;;;;6.43;98.19;103373.34;5002751;28;20049;-75
2021/12/19 09:12:46;;;;;;;7.80;2.50;;;;;;;6.47;97.54;103380.31;5014020;28;20042;-79
2021/12/19 09:15:12;;;;;;;10.38;2.30;;;;;;;6.42;97.98;103375.91;5000915;28;20066;-77
2021/12/19 09:17:37;;;;;;;9.02;2.40;;;;;;;6.45;97.09;103376.81;5003230;28;20104;-76
2021/12/19 09:20:05;;;;;;;9.27;2.30;;;;;;;6.46;97.59;103389.00;4994677;28;20042;-79
2021/12/19 09:22:30;;;;;;;8.80;1.98;;;;;;;6.45;97.33;103379.44;5008457;28;20037;-80
2021/12/19 09:24:56;;;;;;;8.27;2.30;;;;;;;6.43;96.76;103391.63;5006995;28;20140;-76
2021/12/19 09:27:21;;;;;;;6.53;2.22;;;;;;;6.40;97.67;103394.19;5006701;28;20037;-78
2021/12/19 09:29:46;;;;;;;12.55;2.42;;;;;;;6.43;97.54;103396.84;5000166;28;20049;-78
2021/12/19 09:32:12;;;;;;;9.70;2.20;;;;;;;6.49;97.23;103394.28;5002564;28;20052;-78
2021/12/19 09:34:37;;;;;;;6.07;2.15;;;;;;;6.42;97.01;103388.97;5003263;28;20044;-76
2021/12/19 09:37:03;;;;;;;8.13;2.50;;;;;;;6.50;97.62;103388.19;5001968;28;20054;-77
2021/12/19 09:39:30;;;;;;;12.32;2.80;;;;;;;6.57;98.09;103397.00;5004981;28;20033;-75
2021/12/19 09:41:59;;;;;;;10.38;2.58;;;;;;;6.67;97.69;103391.88;4998104;28;20034;-78
2021/12/19 09:44:25;;;;;;;8.30;2.45;;;;;;;6.68;97.88;103378.81;5005679;28;20546;-77
2021/12/19 09:46:51;;;;;;;10.38;2.45;;;;;;;6.69;97.56;103387.53;5003080;28;20048;-79
2021/12/19 09:49:18;;;;;;;11.55;2.30;;;;;;;6.68;97.45;103394.47;5005551;28;20050;-78
2021/12/19 09:51:45;;;;;;;9.65;2.40;;;;;;;6.64;97.70;103383.13;5001736;28;20464;-78
2021/12/19 09:54:11;;;;;;;12.32;2.40;;;;;;;6.69;98.16;103380.56;5000014;28;20104;-80
2021/12/19 09:56:39;;;;;;;7.18;2.28;;;;;;;6.68;97.56;103380.56;5000733;28;20038;-81
2021/12/19 09:59:20;;;;;;;9.55;2.50;;;;;;;6.68;97.49;103376.19;5007718;28;20089;-79
2021/12/19 10:01:47;;;;;;;11.65;2.60;;;;;;;6.80;96.85;103381.56;5016391;28;20056;-78
2021/12/19 10:04:43;;;;;;;10.90;2.20;;;;;;;6.71;95.38;103371.00;5022041;28;20053;-78
2021/12/19 10:07:28;;;;;;;5.90;2.05;;;;;;;6.64;95.72;103372.69;5002150;28;21972;-76
2021/12/19 10:13:06;;;;;;;5.25;1.90;;;;;;;6.69;94.79;103374.47;5001776;28;20045;-80
2021/12/19 10:15:34;;;;;;;5.80;1.88;;;;;;;6.69;94.50;103366.63;4998332;28;20456;-74
2021/12/19 10:18:16;;;;;;;9.07;2.10;;;;;;;6.72;94.42;103371.91;4997483;28;20060;-79
2021/12/19 10:20:57;;;;;;;10.38;2.20;;;;;;;6.69;94.39;103366.63;4994728;28;20384;-77
2021/12/19 10:23:25;;;;;;;6.82;1.60;;;;;;;6.74;94.76;103367.53;5001455;28;20066;-77
2021/12/19 10:26:07;;;;;;;6.30;1.58;;;;;;;6.71;95.33;103357.94;4991556;28;20046;-78
2021/12/19 10:28:47;;;;;;;4.25;1.75;;;;;;;6.54;94.18;103347.31;4993847;28;20470;-77
2021/12/19 10:31:13;;;;;;;6.97;1.52;;;;;;;6.49;95.09;103354.25;5001834;28;20045;-79
2021/12/19 10:33:39;;;;;;;4.10;1.52;;;;;;;6.46;94.95;103359.44;4995999;28;20045;-81
2021/12/19 10:36:06;;;;;;;9.02;1.67;;;;;;;6.59;95.76;103368.25;5005057;28;20073;-77
2021/12/19 10:38:49;;;;;;;13.35;2.50;;;;;;;6.51;96.15;103370.78;5000978;28;20057;-75
2021/12/19 10:41:34;;;;;;;9.68;2.10;;;;;;;6.38;96.86;103363.69;4997250;28;20607;-77
2021/12/19 10:44:05;;;;;;;7.60;1.98;;;;;;;6.41;97.42;103371.53;5013181;28;20387;-79
2021/12/19 10:46:35;;;;;;;2.70;1.20;;;;;;;6.31;97.82;103368.81;5012791;28;20124;-76
2021/12/19 10:49:01;;;;;;;6.57;1.30;;;;;;;6.46;96.57;103354.22;5009174;28;20037;-77
2021/12/19 10:52:36;;;;;;;5.25;1.17;;;;;;;6.29;97.05;103351.41;5055111;27;1264824;-72
2021/12/19 10:55:07;;;;;;;4.80;1.30;;;;;;;6.41;97.10;103348.03;5069523;28;20045;-72
2021/12/19 10:57:36;;;;;;;4.82;1.17;;;;;;;6.48;95.37;103345.53;5086049;28;20044;-73
2021/12/19 11:00:06;;;;;;;5.60;1.33;;;;;;;6.50;95.70;103342.94;5074616;28;20036;-77
2021/12/19 11:02:47;;;;;;;4.57;1.50;;;;;;;6.61;94.86;103333.50;5074547;28;20405;-77
2021/12/19 11:05:44;;;;;;;5.57;1.33;;;;;;;6.68;94.52;103323.94;5087937;28;20047;-79
2021/12/19 11:08:10;;;;;;;3.45;1.17;;;;;;;6.62;94.47;103316.06;5083248;28;20036;-80
2021/12/19 11:10:38;;;;;;;3.65;1.20;;;;;;;6.69;94.65;103315.25;5084911;28;20060;-82
2021/12/19 11:13:19;;;;;;;5.05;1.48;;;;;;;6.73;95.79;103319.66;5102953;28;20509;-79
2021/12/19 11:15:44;;;;;;;6.20;1.50;;;;;;;6.79;95.30;103313.63;5080434;28;20390;-80
2021/12/19 11:18:10;;;;;;;3.75;1.70;;;;;;;6.90;95.28;103311.06;5082502;28;20039;-74
2021/12/19 11:20:35;;;;;;;6.13;1.42;;;;;;;7.01;94.66;103306.81;5084355;28;20402;-73
2021/12/19 11:23:01;;;;;;;6.38;1.73;;;;;;;6.91;94.53;103303.28;5081536;28;20036;-75
2021/12/19 11:25:27;;;;;;;9.63;1.58;;;;;;;6.90;94.83;103304.13;5077345;28;20044;-73
2021/12/19 11:27:52;;;;;;;6.93;1.45;;;;;;;6.82;95.06;103300.59;5085366;28;20162;-75
2021/12/19 11:30:18;;;;;;;5.30;1.45;;;;;;;6.84;95.06;103298.84;5084360;28;20071;-75
2021/12/19 11:33:14;;;;;;;9.05;1.85;;;;;;;6.81;95.25;103301.44;5079884;28;20033;-76
2021/12/19 11:35:46;;;;;;;8.57;1.80;;;;;;;6.81;95.24;103301.44;5079961;28;20032;-73
2021/12/19 11:38:17;;;;;;;6.53;1.90;;;;;;;6.84;95.39;103300.59;5080090;28;20032;-73
2021/12/19 11:40:43;;;;;;;5.95;2.08;;;;;;;6.87;94.78;103300.63;5080731;28;20051;-75
2021/12/19 11:43:10;;;;;;;5.93;2.00;;;;;;;6.97;95.29;103295.47;5085568;28;20048;-76
2021/12/19 11:45:41;;;;;;;8.40;2.25;;;;;;;6.95;94.68;103291.97;5078300;28;20121;-77
2021/12/19 11:51:19;;;;;;;7.55;1.80;;;;;;;6.93;95.29;103275.41;5078077;28;20053;-77
2021/12/19 11:53:44;;;;;;;8.65;2.05;;;;;;;6.88;95.21;103269.25;5087044;28;20083;-79
2021/12/19 11:56:11;;;;;;;7.05;1.88;;;;;;;6.91;94.96;103263.19;5090108;28;20066;-75
2021/12/19 12:04:17;;;;;;;10.20;2.00;;;;;;;6.85;94.03;103253.56;5037440;28;20033;-73
2021/12/19 12:06:52;;;;;;;9.80;2.58;;;;;;;6.84;94.37;103257.03;5068864;28;20032;-76
2021/12/19 12:09:23;;;;;;;13.85;2.60;;;;;;;6.81;94.26;103254.41;5065615;28;21536;-74
2021/12/19 12:12:08;;;;;;;9.25;1.95;;;;;;;6.88;94.84;103248.38;5066522;28;20044;-74
2021/12/19 12:15:05;;;;;;;10.05;2.30;;;;;;;6.83;95.43;103238.72;5064781;28;20077;-73
2021/12/19 12:17:36;;;;;;;10.50;2.80;;;;;;;6.83;94.91;103237.00;5064231;28;20131;-74
2021/12/19 12:20:19;;;;;;;9.07;2.15;;;;;;;6.95;95.15;103239.69;5052114;28;20102;-78
2021/12/19 12:23:05;;;;;;;13.27;2.40;;;;;;;7.00;95.25;103231.88;5066988;28;20044;-80
2021/12/19 12:25:34;;;;;;;9.27;2.40;;;;;;;7.02;95.49;103232.78;5064769;28;20052;-77
2021/12/19 12:28:04;;;;;;;9.60;2.10;;;;;;;7.09;94.84;103229.34;5063388;28;20114;-77
2021/12/19 12:30:47;;;;;;;7.65;2.05;;;;;;;7.06;95.51;103221.47;5066184;28;20039;-78
2021/12/19 12:33:17;;;;;;;6.63;1.90;;;;;;;7.18;95.62;103217.19;5059502;28;20059;-80
2021/12/19 12:35:46;;;;;;;5.80;1.85;;;;;;;7.12;95.05;103223.25;5059978;28;20087;-76
2021/12/19 12:38:12;;;;;;;7.63;1.80;;;;;;;6.99;96.16;103219.72;5043852;28;20412;-79
2021/12/19 12:43:23;;;;;;;8.68;1.70;;;;;;;6.95;96.50;103212.69;5048274;28;20029;-81
2021/12/19 12:46:06;;;;;;;7.55;1.60;;;;;;;7.00;97.85;103215.34;5050100;28;20559;-79
2021/12/19 12:48:31;;;;;;;4.85;1.40;;;;;;;7.21;97.36;103206.78;5048142;28;20060;-77
2021/12/19 12:50:58;;;;;;;7.75;1.65;;;;;;;7.12;96.53;103200.59;5031772;28;20079;-78
2021/12/19 12:53:41;;;;;;;5.68;1.60;;;;;;;7.02;97.05;103203.16;5037163;28;20037;-80
2021/12/19 12:56:10;;;;;;;7.17;1.43;;;;;;;6.93;98.00;103207.47;5048727;28;20056;-76
2021/12/19 12:58:53;;;;;;;5.22;1.50;;;;;;;7.08;98.18;103205.81;5045412;28;20460;-78
2021/12/19 13:01:36;;;;;;;4.22;1.48;;;;;;;6.88;98.79;103214.38;5045510;28;20072;-78
2021/12/19 13:04:32;;;;;;;7.40;1.75;;;;;;;6.94;98.60;103209.22;5045674;28;20098;-78
2021/12/19 13:07:14;;;;;;;9.70;2.13;;;;;;;6.81;98.96;103196.94;5047204;28;20045;-80